Station: Macquarie Island  

  Atmospheric Gas Attenuation - ITU Rec 676-11   ----------------- dB/100km -----------------
Date Time Temp RH % AH g/m3 Dew Point Wind Direction Speed kph Gust kph Barometer mB Rainfall Since 9am 24GHz 47GHz 76GHz 122GHz 134GHz 241GHz
05/05 22:50 7 95 7.36 6.3 48 54 995.5 0.4 17.2 25.1 37.3 97.9 88.6 303.4
05/05 22:40 7.1 96 7.49 6.5 44 54 995.3 0.4 17.5 25.3 37.7 99.2 90.2 309.2
05/05 22:30 7.2 95 7.46 6.5 44 46 995.3 0.4 17.5 25.2 37.6 98.7 89.7 307.3
05/05 22:20 7.2 96 7.54 6.6 43 46 995.3 0.4 17.6 25.4 37.9 99.6 90.8 311.2
05/05 22:10 7.2 96 7.54 6.6 43 46 995.3 0.4 17.6 25.4 37.9 99.6 90.8 311.2
05/05 22:00 7.1 96 7.49 6.5 43 46 995.3 0.4 17.5 25.3 37.7 99.2 90.2 309.2
05/05 21:50 7.1 96 7.49 6.5 44 50 995.3 0.4 17.5 25.3 37.7 99.2 90.2 309.2
05/05 21:40 7.1 96 7.49 6.5 43 48 995.3 0.4 17.5 25.3 37.7 99.2 90.2 309.2
05/05 21:30 7.1 97 7.57 6.7 41 46 995.2 0.4 17.7 25.5 38.1 100.1 91.3 313.0
05/05 21:20 7.2 97 7.62 6.8 37 41 995.2 0.4 17.8 25.5 38.2 100.5 91.9 315.0
05/05 21:10 7.3 97 7.67 6.9 46 52 995.1 0.4 17.9 25.6 38.4 100.9 92.4 317.0
05/05 21:00 7.6 97 7.82 7.2 48 52 995 0.2 18.2 25.7 38.9 102.2 94.1 323.0
05/05 20:50 7.6 97 7.82 7.2 46 54 994.9 0.2 18.2 25.7 38.9 102.2 94.1 322.9
05/05 20:40 7.7 97 7.87 7.3 46 52 994.8 0.2 18.3 25.8 39.0 102.6 94.7 324.9
05/05 20:30 7.6 97 7.82 7.2 39 46 994.8 0.2 18.2 25.7 38.9 102.2 94.1 322.9
05/05 20:20 7.6 97 7.82 7.2 41 50 994.7 0.2 18.2 25.7 38.9 102.1 94.1 322.9
05/05 20:10 7.6 97 7.82 7.2 46 50 994.6 0.2 18.2 25.7 38.8 102.1 94.1 322.9
05/05 20:00 7.7 97 7.87 7.3 43 48 994.6 0.2 18.3 25.8 39.0 102.6 94.7 324.8
05/05 19:50 7.7 97 7.87 7.3 44 50 994.5 0.2 18.3 25.8 39.0 102.6 94.7 324.8
05/05 19:40 7.7 97 7.87 7.3 39 41 994.5 0.2 18.3 25.8 39.0 102.6 94.7 324.8
05/05 19:30 7.8 98 8 7.5 41 44 994.5 0.2 18.6 25.9 39.5 103.9 96.3 330.7
05/05 19:20 7.7 97 7.87 7.3 35 39 994.6 0.2 18.3 25.8 39.0 102.6 94.7 324.8
05/05 19:10 7.7 97 7.87 7.3 35 37 994.7 0.2 18.3 25.8 39.0 102.6 94.7 324.9
05/05 19:00 7.7 97 7.87 7.3 37 43 994.8 0.2 18.3 25.8 39.0 102.6 94.7 324.9
05/05 18:50 7.7 97 7.87 7.3 39 41 994.9 0.2 18.3 25.8 39.0 102.6 94.7 324.9
05/05 18:40 7.7 97 7.87 7.3 37 41 994.9 0.2 18.3 25.8 39.0 102.6 94.7 324.9
05/05 18:30 7.7 97 7.87 7.3 41 43 995.1 0.2 18.3 25.8 39.0 102.6 94.7 325.0
05/05 18:20 7.8 97 7.92 7.4 41 43 995.1 0.2 18.4 25.8 39.2 103.0 95.3 327.0
05/05 18:10 7.7 97 7.87 7.3 41 43 995.1 0.2 18.3 25.8 39.0 102.6 94.7 325.0
05/05 18:00 7.8 97 7.92 7.4 39 43 995.2 0.2 18.4 25.8 39.2 103.1 95.3 327.0
05/05 17:50 7.8 97 7.92 7.4 39 43 995.3 0.2 18.4 25.8 39.2 103.1 95.3 327.0
05/05 17:40 7.8 97 7.92 7.4 41 43 995.4 0.2 18.4 25.8 39.2 103.1 95.3 327.1
05/05 17:30 7.8 97 7.92 7.4 41 43 995.4 0.2 18.4 25.8 39.2 103.1 95.3 327.1
05/05 17:20 7.9 97 7.97 7.5 43 46 995.3 0.2 18.5 25.9 39.4 103.5 95.9 329.0
05/05 17:10 7.9 97 7.97 7.5 43 46 995.3 0.2 18.5 25.9 39.4 103.5 95.9 329.0
05/05 17:00 7.9 97 7.97 7.5 46 48 995.3 0.2 18.5 25.9 39.4 103.5 95.9 329.0
05/05 16:50 7.9 97 7.97 7.5 44 46 995.2 0.2 18.5 25.9 39.4 103.5 95.9 329.0
05/05 16:40 7.8 97 7.92 7.4 43 46 995.4 0.2 18.4 25.8 39.2 103.1 95.3 327.1
05/05 16:30 7.9 97 7.97 7.5 43 46 995.3 0 18.5 25.9 39.4 103.5 95.9 329.0
05/05 16:20 7.9 97 7.97 7.5 44 48 995.4 0 18.5 25.9 39.4 103.5 95.9 329.1
05/05 16:10 7.9 97 7.97 7.5 46 50 995.4 0 18.5 25.9 39.4 103.5 95.9 329.1
05/05 16:00 7.9 97 7.97 7.5 43 48 995.5 0 18.5 25.9 39.4 103.5 95.9 329.1
05/05 15:50 7.9 97 7.97 7.5 44 48 995.5 0 18.5 25.9 39.4 103.5 95.9 329.1
05/05 15:40 7.8 97 7.92 7.4 41 44 995.6 0 18.4 25.9 39.2 103.1 95.3 327.1
05/05 15:30 7.9 97 7.97 7.5 43 46 995.8 0 18.5 25.9 39.4 103.5 95.9 329.2
05/05 15:20 7.8 97 7.92 7.4 46 50 995.9 0 18.4 25.9 39.2 103.1 95.3 327.2
05/05 15:10 7.8 98 8 7.5 43 44 995.9 0 18.6 26.0 39.6 104.0 96.5 331.1
05/05 15:00 7.8 97 7.92 7.4 43 44 995.9 0 18.4 25.9 39.2 103.1 95.3 327.2
05/05 14:50 7.8 97 7.92 7.4 37 39 995.8 0 18.4 25.9 39.2 103.1 95.3 327.2
05/05 14:40 7.7 98 7.95 7.4 37 43 995.7 0 18.5 25.9 39.4 103.6 95.9 329.0
05/05 14:30 7.8 98 8 7.5 41 43 995.8 0 18.6 26.0 39.6 104.0 96.4 331.0
05/05 14:20 7.8 97 7.92 7.4 41 44 995.9 0 18.4 25.9 39.2 103.1 95.3 327.2
05/05 14:10 7.8 97 7.92 7.4 39 43 996.3 0 18.4 25.9 39.2 103.2 95.4 327.3
05/05 14:00 7.7 97 7.87 7.3 33 35 996.4 0 18.3 25.8 39.1 102.8 94.8 325.3
05/05 13:50 7.6 97 7.82 7.2 35 37 996.7 0 18.2 25.8 38.9 102.4 94.3 323.4
05/05 13:40 7.8 97 7.92 7.4 37 39 996.8 0 18.4 25.9 39.3 103.2 95.4 327.4
05/05 13:30 7.8 97 7.92 7.4 39 43 996.9 0 18.4 25.9 39.3 103.2 95.4 327.5
05/05 13:20 7.8 97 7.92 7.4 39 41 996.8 0 18.4 25.9 39.3 103.2 95.4 327.4
05/05 13:10 7.7 97 7.87 7.3 39 43 996.9 0 18.3 25.8 39.1 102.8 94.9 325.5
05/05 13:00 7.8 97 7.92 7.4 43 50 997.1 0 18.4 25.9 39.3 103.3 95.4 327.5
05/05 12:50 7.7 97 7.87 7.3 41 44 997.2 0 18.3 25.9 39.1 102.8 94.9 325.6
05/05 12:40 7.7 97 7.87 7.3 43 48 997.5 0 18.3 25.9 39.1 102.9 94.9 325.6
05/05 12:30 7.7 97 7.87 7.3 39 43 997.6 0 18.3 25.9 39.1 102.9 94.9 325.7
05/05 12:20 7.7 97 7.87 7.3 39 43 997.6 0 18.3 25.9 39.1 102.9 94.9 325.7
05/05 12:10 7.7 97 7.87 7.3 39 43 998 0 18.3 25.9 39.2 102.9 94.9 325.8
05/05 12:00 7.8 97 7.92 7.4 41 44 998.1 0 18.4 25.9 39.3 103.4 95.5 327.8
05/05 11:50 7.8 97 7.92 7.4 39 44 998.2 0 18.4 26.0 39.3 103.4 95.5 327.8
05/05 11:40 7.8 97 7.92 7.4 39 43 998.2 0 18.4 26.0 39.3 103.4 95.5 327.8
05/05 11:30 7.8 97 7.92 7.4 37 39 998.3 0 18.4 26.0 39.3 103.4 95.5 327.9
05/05 11:20 7.8 97 7.92 7.4 37 41 998.4 0 18.4 26.0 39.3 103.4 95.5 327.9
05/05 11:10 7.9 97 7.97 7.5 39 43 998.6 0 18.5 26.0 39.5 103.9 96.1 329.9
05/05 11:00 7.8 97 7.92 7.4 41 44 998.9 0 18.4 26.0 39.4 103.5 95.6 328.0
05/05 10:50 7.7 97 7.87 7.3 39 41 999 0 18.3 25.9 39.2 103.0 95.0 326.0
05/05 10:40 7.6 97 7.82 7.2 39 43 999 0 18.2 25.9 39.0 102.6 94.5 324.0
05/05 10:30 7.6 97 7.82 7.2 37 41 999.2 0 18.2 25.9 39.1 102.6 94.5 324.1
05/05 10:20 7.6 97 7.82 7.2 39 41 999.5 0 18.2 25.9 39.1 102.7 94.5 324.2
05/05 10:10 7.6 97 7.82 7.2 39 41 999.6 0 18.2 25.9 39.1 102.7 94.5 324.2
05/05 10:00 7.6 97 7.82 7.2 37 41 999.6 0 18.2 25.9 39.1 102.7 94.5 324.2
05/05 09:50 7.7 97 7.87 7.3 35 39 999.5 0 18.3 25.9 39.2 103.1 95.1 326.2
05/05 09:40 7.8 97 7.92 7.4 35 39 999.4 0 18.4 26.0 39.4 103.5 95.6 328.2
05/05 09:30 7.7 97 7.87 7.3 33 35 999.3 0 18.3 25.9 39.2 103.1 95.1 326.1
05/05 09:20 7.7 97 7.87 7.3 33 35 999.3 0 18.3 25.9 39.2 103.1 95.1 326.1
05/05 09:10 7.6 97 7.82 7.2 35 39 999.4 0 18.2 25.9 39.1 102.7 94.5 324.1
05/05 09:00 7.6 97 7.82 7.2 37 39 999.5 0 18.2 25.9 39.1 102.7 94.5 324.2
05/05 08:50 7.6 97 7.82 7.2 35 37 999.9 6.4 18.2 25.9 39.1 102.7 94.5 324.3
05/05 08:40 7.5 97 7.77 7.1 37 41 999.8 6.4 18.1 25.8 38.9 102.3 94.0 322.2
05/05 08:30 7.4 97 7.72 7 35 41 1000 6.4 18.0 25.8 38.8 101.9 93.4 320.3
05/05 08:20 7.3 97 7.67 6.9 35 37 1000.1 6.4 17.9 25.8 38.6 101.4 92.8 318.3
05/05 08:10 7.5 97 7.77 7.1 35 39 1000 6.4 18.1 25.9 38.9 102.3 94.0 322.3
05/05 08:00 7.6 98 7.9 7.3 37 50 1000.1 6.4 18.4 26.1 39.4 103.6 95.7 328.2
05/05 07:50 7 97 7.52 6.6 26 28 1000.3 6.2 17.6 25.6 38.1 100.2 91.1 312.3
05/05 07:40 6.7 97 7.37 6.3 17 17 1000.3 6.2 17.3 25.4 37.7 98.9 89.4 306.3
05/05 07:30 6.7 97 7.37 6.3 15 17 1000.4 6.2 17.3 25.4 37.7 98.9 89.4 306.3
05/05 07:20 6.8 97 7.42 6.4 17 20 1000.7 6.2 17.4 25.5 37.8 99.3 90.0 308.4
05/05 07:10 6.7 97 7.37 6.3 15 17 1000.7 6.2 17.3 25.4 37.7 98.9 89.5 306.4
05/05 07:00 6.9 97 7.47 6.5 13 20 1000.8 6.2 17.5 25.6 38.0 99.8 90.6 310.4
05/05 06:50 6.5 97 7.28 6.1 7 9 1000.8 6.2 17.1 25.4 37.4 98.2 88.5 302.9
05/05 06:40 6.5 97 7.28 6.1 6 7 1000.8 6.2 17.1 25.4 37.4 98.2 88.5 302.9
05/05 06:30 6.5 97 7.28 6.1 7 9 1001 6.2 17.1 25.4 37.4 98.2 88.5 302.9
05/05 06:20 6.4 97 7.23 6 7 7 1000.9 6.2 17.0 25.3 37.2 97.8 87.9 300.9

Last Refresh: 05-May-2026 22:21:09

Bureau of Meteorology